Red Diamond — A8UM9 — position and weather

sailwx.info

Track history (hours):
 
Tides and Currents Weather Stations Pressure Air Temp Water Temp Dewpoint Dewpoint Depression Visibility Wind Speed Wind Dir Waves Ship Positions

Red Diamond

Last reported at 2017-Oct-06 17:13 UTC. Time now 2017-Oct-17 02:09 UTC.
Position N 28°11' W 118°50'.
Warning: this ship's position is 10 days out of date.

Length 190 m; draft 7.4 m.

Type: Ship. MMSI: 636014524.

Date/timePositionNaut miles runAvg speedWind from/ knotsBaromVisibWave heightAir tempDewpointWater temp
2017-Oct-06 17:13N 28°11' W 118°50'5714.1
2017-Oct-06 13:11N 28°48' W 119°39'314.1
2017-Oct-06 13:00N 28°49' W 119°41'714.0
2017-Oct-06 12:30N 28°54' W 119°47'714.0
2017-Oct-06 11:59N 28°59' W 119°54'1314.0
2017-Oct-06 11:02N 29°08' W 120°05'013.8
2017-Oct-06 11:00N 29°08' W 120°05'2113.9
2017-Oct-06 09:30N 29°21' W 120°23'713.9
2017-Oct-06 09:00N 29°26' W 120°30'913.9
2017-Oct-06 08:21N 29°32' W 120°37'614.1
2017-Oct-06 07:57N 29°35' W 120°42'613.9
2017-Oct-06 07:30N 29°40' W 120°48'714.0
2017-Oct-06 07:00N 29°44' W 120°54'714.0
2017-Oct-06 06:28N 29°49' W 121°00'613.9
2017-Oct-06 06:00N 29°53' W 121°06'1013.9
2017-Oct-06 05:19N 29°60' W 121°14'1613.7
2017-Oct-06 04:11N 30°08' W 121°29'213.7
2017-Oct-06 04:00N 30°09' W 121°32'713.8
2017-Oct-06 03:31N 30°13' W 121°39'713.8
2017-Oct-06 03:00N 30°16' W 121°45'713.8
2017-Oct-06 02:30N 30°20' W 121°52'713.8
2017-Oct-06 02:00N 30°24' W 121°59'713.9
2017-Oct-06 01:30N 30°27' W 122°06'813.8
2017-Oct-06 00:57N 30°31' W 122°13'714.0
2017-Oct-06 00:28N 30°35' W 122°20'1214.0
2017-Oct-05 23:36N 30°42' W 122°32'1414.1
2017-Oct-05 22:36N 30°49' W 122°46'714.0
2017-Oct-05 22:07N 30°52' W 122°53'513.8
2017-Oct-05 21:44N 30°55' W 122°58'313.6
2017-Oct-05 21:30N 30°56' W 123°02'713.5
2017-Oct-05 21:00N 31°00' W 123°08'713.5
2017-Oct-05 20:30N 31°04' W 123°14'913.8
2017-Oct-05 19:53N 31°09' W 123°23'1613.7
2017-Oct-05 18:42N 31°17' W 123°39'4313.4
2017-Oct-05 15:31N 31°40' W 124°22'713.6
2017-Oct-05 14:59N 31°43' W 124°29'14913.6
2017-Oct-05 04:05N 32°59' W 127°00'113.9
2017-Oct-05 04:00N 32°59' W 127°02'  
Track history (hours):
 
Tides and Currents Weather Stations Pressure Air Temp Water Temp Dewpoint Dewpoint Depression Visibility Wind Speed Wind Dir Waves Ship Positions

Red Diamond

Last reported at 2017-Oct-06 17:13 UTC. Time now 2017-Oct-17 02:09 UTC.
Position N 28°11' W 118°50'.
Warning: this ship's position is 10 days out of date.

Length 190 m; draft 7.4 m.

Type: Ship. MMSI: 636014524.

Date/timePositionNaut miles runAvg speedWind from/ knotsBaromVisibWave heightAir tempDewpointWater temp
2017-Oct-06 17:13N 28°11' W 118°50'5714.1
2017-Oct-06 13:11N 28°48' W 119°39'314.1
2017-Oct-06 13:00N 28°49' W 119°41'714.0
2017-Oct-06 12:30N 28°54' W 119°47'714.0
2017-Oct-06 11:59N 28°59' W 119°54'1314.0
2017-Oct-06 11:02N 29°08' W 120°05'013.8
2017-Oct-06 11:00N 29°08' W 120°05'2113.9
2017-Oct-06 09:30N 29°21' W 120°23'713.9
2017-Oct-06 09:00N 29°26' W 120°30'913.9
2017-Oct-06 08:21N 29°32' W 120°37'614.1
2017-Oct-06 07:57N 29°35' W 120°42'613.9
2017-Oct-06 07:30N 29°40' W 120°48'714.0
2017-Oct-06 07:00N 29°44' W 120°54'714.0
2017-Oct-06 06:28N 29°49' W 121°00'613.9
2017-Oct-06 06:00N 29°53' W 121°06'1013.9
2017-Oct-06 05:19N 29°60' W 121°14'1613.7
2017-Oct-06 04:11N 30°08' W 121°29'213.7
2017-Oct-06 04:00N 30°09' W 121°32'713.8
2017-Oct-06 03:31N 30°13' W 121°39'713.8
2017-Oct-06 03:00N 30°16' W 121°45'713.8
2017-Oct-06 02:30N 30°20' W 121°52'713.8
2017-Oct-06 02:00N 30°24' W 121°59'713.9
2017-Oct-06 01:30N 30°27' W 122°06'813.8
2017-Oct-06 00:57N 30°31' W 122°13'714.0
2017-Oct-06 00:28N 30°35' W 122°20'1214.0
2017-Oct-05 23:36N 30°42' W 122°32'1414.1
2017-Oct-05 22:36N 30°49' W 122°46'714.0
2017-Oct-05 22:07N 30°52' W 122°53'513.8
2017-Oct-05 21:44N 30°55' W 122°58'313.6
2017-Oct-05 21:30N 30°56' W 123°02'713.5
2017-Oct-05 21:00N 31°00' W 123°08'713.5
2017-Oct-05 20:30N 31°04' W 123°14'913.8
2017-Oct-05 19:53N 31°09' W 123°23'1613.7
2017-Oct-05 18:42N 31°17' W 123°39'4313.4
2017-Oct-05 15:31N 31°40' W 124°22'713.6
2017-Oct-05 14:59N 31°43' W 124°29'14913.6
2017-Oct-05 04:05N 32°59' W 127°00'113.9
2017-Oct-05 04:00N 32°59' W 127°02'  

Dump ship's entire track history